Extreme high temperature From: 23-07-2018 05:00 Until: 24-07-2018 01:00 warning for: Extreme high temperature Level: Yellow info button
suomi:
Hellevaroitus: Lähivuorokauden aikana on odotettavissa tukalaa hellettä.

svenska:
Varning för värmebölja: Under det närmaste dygnet är den svåra hettan att vänta.

english:
Heat wave warning: Warm weather is expected during the coming 24 hours. 


Thunder radar more information blitzortung!


Löydät sääaseman tiedot myös:

European Weather Network

Finland Weather Exchange

Weather Underground

AWEKAS



Weather Underground säähistoriasivu

Päivittäin yhteenveto Kesäkuu 27, 2017 Yksiköt:  Englantilaiset    Metriset   Molemmat
« Edellinen Päivä
Seuraava Päivä »
Päivittäin Viikoittain Kuukausittain Vuosittain Mukautettu
  Korkea: Matala: Keskiarvo:
Lämpötila: TemperatureC °F 8.7 °F 11.7 °F
Kastepiste: DewpointC °F 7.8 °F 10.3 °F
Kosteus: Humidity % 75 % 90 %
Tuulen nopeus: WindSpeedKMH mph 0.0 mph 1.5 mph
Tuulenpuuska: WindSpeedGustKMH mph - -
Tuuli:- - West
Ilmanpaine: PressurehPa in 990.4 in -
Sade: 6.1 in    
Historical Graphs
 
 
Taulukkotiedot Kesäkuu 27, 2017
Aika Lämpötila Kastepiste Ilmanpaine Tuuli Tuulen nopeus Tuulenpuuska Kosteus Sademäärä (tunneittain)
TemperatureC °F DewpointC °F PressurehPa in Calm     Humidity % HourlyPrecipMM in
00:15 10.9 °F 8.8 °F 990.4 in Calm   3.2 mph 87 % 0.0 in
00:30 10.7 °F 8.8 °F 990.4 in Calm   1.6 mph 88 % 0.0 in
00:45 10.6 °F 8.8 °F 990.7 in Calm     89 % 0.0 in
01:00 10.4 °F 8.9 °F 990.7 in Calm     90 % 0.0 in
01:15 10.4 °F 8.9 °F 990.7 in Calm     90 % 0.0 in
01:30 10.3 °F 8.9 °F 991.1 in Calm     91 % 0.0 in
01:45 10.2 °F 8.8 °F 991.1 in Calm     91 % 0.0 in
02:00 10.1 °F 8.7 °F 991.4 in Calm     91 % 0.0 in
02:15 9.9 °F 8.5 °F 991.4 in Calm     91 % 0.0 in
02:30 9.7 °F 8.5 °F 991.8 in Calm     92 % 0.0 in
02:45 9.5 °F 8.3 °F 991.8 in Calm     92 % 0.0 in
03:00 9.3 °F 8.2 °F 991.8 in Calm     93 % 0.0 in
03:15 9.2 °F 8.1 °F 991.8 in Calm     94 % 0.0 in
03:30 9.1 °F 8.2 °F 992.1 in Calm     94 % 0.0 in
03:45 9.1 °F 8.1 °F 992.1 in Calm   4.8 mph 94 % 0.0 in
04:00 8.8 °F 7.9 °F 992.4 in Calm     94 % 0.0 in
04:15 8.7 °F 7.8 °F 992.4 in Calm     94 % 0.0 in
04:30 8.7 °F 8.0 °F 992.4 in Calm   1.6 mph 95 % 0.0 in
04:45 8.9 °F 8.3 °F 992.4 in Calm   1.6 mph 96 % 0.0 in
05:00 9.1 °F 8.5 °F 992.8 in Calm     96 % 0.0 in
05:15 9.1 °F 8.5 °F 992.8 in Calm   1.6 mph 96 % 0.0 in
05:30 9.0 °F 8.4 °F 992.8 in Calm   3.2 mph 96 % 0.0 in
05:45 9.1 °F 8.5 °F 993.1 in Calm   3.2 mph 96 % 0.0 in
06:00 9.3 °F 8.9 °F 993.1 in Calm   4.8 mph 97 % 0.0 in
06:15 9.5 °F 8.9 °F 993.1 in SSW 1.6 mph 8.0 mph 96 % 0.0 in
06:30 9.4 °F 8.8 °F 993.5 in SSW 1.6 mph 8.0 mph 96 % 0.0 in
06:45 9.7 °F 9.1 °F 993.5 in SSW 1.6 mph 9.7 mph 96 % 0.0 in
07:00 9.8 °F 9.2 °F 993.5 in SW 1.6 mph 8.0 mph 96 % 0.0 in
07:15 9.9 °F 9.0 °F 993.5 in SW 1.6 mph 8.0 mph 94 % 0.0 in
07:30 10.0 °F 8.9 °F 993.5 in Calm   6.4 mph 93 % 0.0 in
07:45 10.1 °F 9.0 °F 993.8 in SSW 1.6 mph 6.4 mph 93 % 0.0 in
08:00 10.3 °F 9.3 °F 993.8 in SSW 1.6 mph 6.4 mph 93 % 0.0 in
08:15 10.9 °F 9.6 °F 993.8 in SW 1.6 mph 8.0 mph 92 % 0.0 in
08:30 11.2 °F 9.6 °F 993.8 in SW 3.2 mph 9.7 mph 90 % 0.0 in
08:45 11.4 °F 9.8 °F 994.1 in SSW 1.6 mph 9.7 mph 90 % 0.0 in
09:00 11.6 °F 10.0 °F 994.1 in SSW 3.2 mph 9.7 mph 90 % 0.0 in
09:15 11.8 °F 10.0 °F 994.1 in SSW 3.2 mph 9.7 mph 89 % 0.0 in
09:30 11.9 °F 10.4 °F 994.5 in SW 1.6 mph 11.3 mph 90 % 0.0 in
09:45 11.9 °F 10.4 °F 994.5 in SSW 3.2 mph 9.7 mph 90 % 0.0 in
10:00 12.2 °F 10.8 °F 994.5 in Calm   6.4 mph 91 % 0.0 in
10:15 12.2 °F 10.7 °F 994.8 in SSW 3.2 mph 9.7 mph 91 % 0.0 in
10:30 12.4 °F 11.0 °F 994.8 in SSW 1.6 mph 9.7 mph 91 % 0.0 in
10:45 12.6 °F 11.0 °F 995.1 in WSW 1.6 mph 8.0 mph 90 % 0.0 in
11:00 12.8 °F 11.2 °F 995.1 in West 1.6 mph 8.0 mph 90 % 0.0 in
11:15 12.9 °F 11.2 °F 995.1 in West 3.2 mph 9.7 mph 89 % 0.3 in
11:30 13.3 °F 11.2 °F 995.5 in West 3.2 mph 9.7 mph 87 % 0.3 in
11:45 13.6 °F 10.9 °F 995.5 in West 3.2 mph 14.5 mph 84 % 0.3 in
12:00 13.6 °F 11.1 °F 995.5 in WNW 6.4 mph 19.3 mph 85 % 0.3 in
12:15 13.6 °F 11.3 °F 995.8 in NW 4.8 mph 14.5 mph 86 % 0.0 in
12:30 13.5 °F 11.2 °F 995.8 in WNW 6.4 mph 17.7 mph 86 % 0.0 in
12:45 14.0 °F 11.7 °F 996.2 in NW 3.2 mph 14.5 mph 86 % 0.0 in
13:00 13.0 °F 10.9 °F 996.2 in NW 3.2 mph 11.3 mph 87 % 0.3 in
13:15 12.8 °F 11.2 °F 996.5 in WNW 3.2 mph 14.5 mph 90 % 0.5 in
13:30 12.9 °F 11.8 °F 996.5 in NW 1.6 mph 9.7 mph 93 % 0.5 in
13:45 12.8 °F 11.5 °F 996.8 in WNW 1.6 mph 11.3 mph 92 % 2.3 in
14:00 12.6 °F 11.6 °F 996.8 in NW 1.6 mph 9.7 mph 94 % 3.3 in
14:15 12.3 °F 11.3 °F 997.2 in WNW 1.6 mph 8.0 mph 94 % 3.6 in
14:30 12.3 °F 11.6 °F 997.5 in WNW 1.6 mph 8.0 mph 95 % 3.6 in
14:45 12.9 °F 12.3 °F 997.5 in Calm   6.4 mph 96 % 1.5 in
15:00 13.3 °F 12.2 °F 997.5 in WNW 3.2 mph 9.7 mph 93 % 0.3 in
15:15 14.0 °F 12.7 °F 997.9 in WNW 1.6 mph 9.7 mph 92 % 0.0 in
15:30 13.8 °F 12.5 °F 997.9 in Calm   9.7 mph 92 % 0.5 in
15:45 13.3 °F 12.2 °F 997.9 in Calm   4.8 mph 93 % 0.5 in
16:00 13.2 °F 12.4 °F 998.2 in Calm   4.8 mph 95 % 0.8 in
16:15 13.2 °F 12.4 °F 998.2 in Calm   8.0 mph 95 % 0.8 in
16:30 13.6 °F 13.0 °F 998.2 in NW 1.6 mph 8.0 mph 96 % 0.3 in
16:45 13.9 °F 12.8 °F 998.5 in Calm   1.6 mph 93 % 0.3 in
17:00 14.1 °F 13.1 °F 998.5 in NW 1.6 mph 8.0 mph 94 % 0.0 in
17:15 14.3 °F 12.5 °F 998.9 in WNW 3.2 mph 11.3 mph 89 % 0.0 in
17:30 14.2 °F 12.2 °F 998.9 in NNW 3.2 mph 9.7 mph 88 % 0.0 in
17:45 14.4 °F 11.8 °F 999.2 in NW 6.4 mph 17.7 mph 84 % 0.0 in
18:00 14.7 °F 12.0 °F 999.2 in NW 3.2 mph 12.9 mph 84 % 0.0 in
18:15 15.3 °F 12.0 °F 999.2 in NW 4.8 mph 17.7 mph 81 % 0.0 in
18:30 15.5 °F 11.1 °F 999.5 in NW 4.8 mph 17.7 mph 75 % 0.0 in
18:45 14.8 °F 10.4 °F 999.5 in NW 6.4 mph 20.9 mph 75 % 0.0 in
19:00 14.3 °F 10.7 °F 999.9 in WNW 3.2 mph 14.5 mph 79 % 0.0 in
19:15 15.2 °F 11.4 °F 999.9 in WSW 1.6 mph 6.4 mph 78 % 0.0 in
19:45 14.4 °F 11.4 °F 1000.2 in WNW 3.2 mph 11.3 mph 82 % 0.0 in
20:00 13.3 °F 11.0 °F 1000.6 in NW 3.2 mph 14.5 mph 86 % 0.5 in
20:15 12.9 °F 11.1 °F 1000.6 in NW 3.2 mph 11.3 mph 89 % 0.5 in
20:30 12.8 °F 11.2 °F 1000.6 in WNW 1.6 mph 11.3 mph 90 % 0.5 in
20:45 12.8 °F 11.1 °F 1000.9 in WNW 3.2 mph 12.9 mph 89 % 0.5 in
21:00 12.7 °F 11.2 °F 1000.9 in WNW 1.6 mph 9.7 mph 91 % 0.5 in
21:15 12.6 °F 11.3 °F 1000.9 in NW 1.6 mph 8.0 mph 92 % 0.5 in
21:30 12.4 °F 11.3 °F 1000.9 in Calm   6.4 mph 93 % 0.5 in
21:45 12.4 °F 11.3 °F 1001.2 in Calm   4.8 mph 93 % 0.5 in
22:00 12.2 °F 11.1 °F 1001.6 in Calm     93 % 0.0 in
22:15 12.2 °F 11.1 °F 1001.6 in Calm   4.8 mph 93 % 0.0 in
22:30 12.1 °F 10.9 °F 1001.6 in Calm   4.8 mph 92 % 0.0 in
22:45 12.0 °F 10.7 °F 1001.9 in WNW 1.6 mph 6.4 mph 92 % 0.0 in
23:00 11.8 °F 10.5 °F 1001.9 in Calm   4.8 mph 92 % 0.0 in
23:15 11.6 °F 10.5 °F 1002.3 in Calm     93 % 0.0 in
23:30 11.4 °F 10.4 °F 1002.3 in Calm     93 % 0.0 in
23:45 11.3 °F 10.2 °F 1002.3 in Calm   6.4 mph 93 % 0.0 in
Esan sääasema
Terveisin Weather Underground - 2.75 mb

Alkuperäinen skripti  Jim McMurry - jmcmurry@mwt.net Sovitettu myös templatelle  Wim van der Kuil - Leuven-Template.eu

Laitteet joita käytämme:

Sääasema
Davis VP2

Sääasemaohjelma
Cumulus

Sääaseman tietokone
Asus EeePC

Palveluntarjoaja
Suncomet

Davis VP2

Cumulus

Asus EeePC

Suncomet